Latest Weather Observations for Campania

IDT60801

Issued at 5:31 am EST Wednesday 1 June 2016 (issued every 30 minutes, with the page automatically refreshed every 10 minutes)

About weather observations | Map of weather stations | Latest weather observations for TAS | Other Formats
Station Details ID: 094212 Name: CAMPANIA (KINCORA) Lat: -42.69 Lon: 147.43 Height: 45.0 m
Data from the previous 72 hours. | See also: Recent months at Campania
Date/Time
EST
Temp
°C
App
Temp
°C
Dew
Point
Rel
Hum
%
Delta-T
°C
Wind Press
QNH
hPa
Press
MSL
hPa
Rain
since 9 am
mm
Dir
 
Spd
km/h
Gust
km/h
Spd
kts
Gust
kts
01/05:30am 1.4 -3.3 0.8 96 0.2 NNW 15 17 8 9 - - 0.0
01/05:00am 0.3 -3.8 -0.4 95 0.2 N 11 13 6 7 - - 0.0
01/04:30am 1.5 -3.2 0.9 96 0.2 N 15 19 8 10 - - 0.0
01/04:00am 1.7 -3.0 1.0 95 0.3 N 15 17 8 9 - - 0.0
01/03:30am 1.8 -2.9 1.1 95 0.3 N 15 17 8 9 - - 0.0
01/03:00am 1.3 -3.1 0.6 95 0.3 N 13 15 7 8 - - 0.0
01/02:30am 1.7 -2.2 1.0 95 0.3 N 11 13 6 7 - - 0.0
01/02:00am 0.6 -2.2 -0.3 94 0.3 WSW 4 6 2 3 - - 0.0
01/01:30am 1.7 -3.0 1.0 95 0.3 N 15 17 8 9 - - 0.0
01/01:00am 2.0 -2.3 1.3 95 0.3 N 13 15 7 8 - - 0.0
01/12:30am 1.9 -2.4 1.2 95 0.3 N 13 17 7 9 - - 0.0
01/12:00am 1.8 -2.5 1.1 95 0.3 N 13 17 7 9 - - 0.0
 
Date/Time
EST
Temp
°C
App
Temp
°C
Dew
Point
Rel
Hum
%
Delta-T
°C
Wind Press
QNH
hPa
Press
MSL
hPa
Rain
since 9 am
mm
Dir
 
Spd
km/h
Gust
km/h
Spd
kts
Gust
kts
31/11:30pm 1.6 -1.6 0.9 95 0.3 N 7 11 4 6 - - 0.0
31/11:00pm 1.7 -1.9 0.8 94 0.3 N 9 11 5 6 - - 0.0
31/10:30pm 1.5 -1.7 0.6 94 0.3 N 7 9 4 5 - - 0.0
31/10:00pm 1.7 -1.5 0.8 94 0.3 N 7 9 4 5 - - 0.0
31/09:30pm 1.9 -1.3 0.9 93 0.4 N 7 11 4 6 - - 0.0
31/09:00pm 2.5 -1.0 1.5 93 0.4 N 9 13 5 7 - - 0.0
31/08:30pm 2.5 -1.0 1.5 93 0.4 N 9 11 5 6 - - 0.0
31/08:00pm 3.3 -0.1 2.1 92 0.5 N 9 11 5 6 - - 0.0
31/07:30pm 3.3 0.3 2.0 91 0.5 N 7 9 4 5 - - 0.0
31/07:00pm 4.1 1.2 2.6 90 0.6 N 7 11 4 6 - - 0.0
31/06:30pm 4.4 0.8 2.8 89 0.7 NNW 11 13 6 7 - - 0.0
31/06:00pm 4.8 1.6 3.1 89 0.7 NNW 9 9 5 5 - - 0.0
31/05:30pm 5.7 2.6 3.7 87 0.8 NW 9 11 5 6 - - 0.0
31/05:00pm 6.4 3.4 4.1 85 1.0 NW 9 11 5 6 - - 0.0
31/04:30pm 8.5 6.5 4.3 75 1.8 WNW 4 7 2 4 - - 0.0
31/04:00pm 11.2 10.2 5.7 69 2.6 CALM 0 7 0 4 - - 0.0
31/03:30pm 11.8 10.5 4.3 60 3.4 CALM 0 0 0 0 - - 0.0
31/03:00pm 11.5 9.5 4.5 62 3.2 SW 4 6 2 3 - - 0.0
31/02:30pm 11.1 9.1 4.3 63 3.1 S 4 7 2 4 - - 0.0
31/02:00pm 11.2 9.3 4.9 65 2.9 SSE 4 7 2 4 - - 0.0
31/01:30pm 11.0 9.2 5.5 69 2.5 SSE 4 9 2 5 - - 0.0
31/01:00pm 10.0 7.5 5.0 71 2.3 ESE 7 9 4 5 - - 0.0
31/12:30pm 10.0 7.8 5.2 72 2.2 E 6 9 3 5 - - 0.0
31/12:00pm 9.1 6.6 4.5 73 2.0 SSE 7 13 4 7 - - 0.0
31/11:30am 9.2 6.4 5.0 75 1.9 NNW 9 13 5 7 - - 0.0
31/11:00am 8.4 4.7 4.6 77 1.7 NNW 13 15 7 8 - - 0.0
31/10:30am 7.4 3.3 4.2 80 1.4 NNW 15 19 8 10 - - 0.0
31/10:00am 6.3 2.6 4.5 88 0.8 NE 13 17 7 9 - - 0.0
31/09:30am 5.0 0.8 3.8 92 0.5 NNE 15 17 8 9 - - 0.0
31/09:00am 3.5 -0.9 2.6 94 0.4 N 15 17 8 9 - - 0.2
31/08:30am 1.7 -3.0 0.8 94 0.3 NNE 15 17 8 9 - - 0.2
31/08:00am 1.0 -3.8 0.3 95 0.3 NNE 15 17 8 9 - - 0.2
31/07:30am 0.9 -4.7 0.2 95 0.3 NNE 19 20 10 11 - - 0.2
31/07:00am 0.6 -4.3 -0.3 94 0.3 N 15 17 8 9 - - 0.2
31/06:30am 0.9 -2.8 0.0 94 0.3 NNW 9 13 5 7 - - 0.2
31/06:00am 0.7 -3.0 -0.2 94 0.3 N 9 13 5 7 - - 0.2
31/05:30am 0.8 -3.3 -0.1 94 0.3 N 11 17 6 9 - - 0.2
31/05:00am 0.6 -3.5 -0.3 94 0.3 NNE 11 13 6 7 - - 0.2
31/04:30am 1.0 -3.4 0.1 94 0.3 N 13 15 7 8 - - 0.2
31/04:00am 1.3 -3.1 0.4 94 0.3 N 13 17 7 9 - - 0.0
31/03:30am 1.3 -3.1 0.4 94 0.3 N 13 15 7 8 - - 0.0
31/03:00am 1.6 -2.4 0.6 93 0.4 NNW 11 15 6 8 - - 0.0
31/02:30am 1.9 -2.4 1.0 94 0.3 N 13 15 7 8 - - 0.0
31/02:00am 1.2 -2.8 0.3 94 0.3 N 11 13 6 7 - - 0.0
31/01:30am 1.4 -2.2 0.4 93 0.4 N 9 11 5 6 - - 0.0
31/01:00am 1.3 -2.7 0.3 93 0.4 N 11 13 6 7 - - 0.0
31/12:30am 1.3 -2.8 0.1 92 0.4 N 11 11 6 6 - - 0.0
31/12:00am 1.7 -1.9 0.5 92 0.4 N 9 11 5 6 - - 0.0
 
Date/Time
EST
Temp
°C
App
Temp
°C
Dew
Point
Rel
Hum
%
Delta-T
°C
Wind Press
QNH
hPa
Press
MSL
hPa
Rain
since 9 am
mm
Dir
 
Spd
km/h
Gust
km/h
Spd
kts
Gust
kts
30/11:30pm 2.4 -1.9 1.1 91 0.5 N 13 15 7 8 - - 0.0
30/11:00pm 2.8 -1.0 1.5 91 0.5 N 11 13 6 7 - - 0.0
30/10:30pm 2.5 -1.4 1.2 91 0.5 N 11 13 6 7 - - 0.0
30/10:00pm 2.9 -0.6 1.4 90 0.6 N 9 11 5 6 - - 0.0
30/09:30pm 2.5 -0.7 0.9 89 0.6 N 7 11 4 6 - - 0.0
30/09:00pm 2.8 -0.8 0.9 87 0.7 N 9 11 5 6 - - 0.0
30/08:30pm 4.6 1.0 2.8 88 0.7 N 11 15 6 8 - - 0.0
30/08:00pm 4.4 1.4 2.3 86 0.8 N 7 9 4 5 - - 0.0
30/07:30pm 4.1 1.3 2.0 86 0.8 NNW 6 9 3 5 - - 0.0
30/07:00pm 5.2 2.8 2.4 82 1.1 N 4 7 2 4 - - 0.0
30/06:30pm 5.4 3.7 1.9 78 1.4 CALM 0 0 0 0 - - 0.0
30/06:00pm 6.7 3.4 2.6 75 1.7 W 9 11 5 6 - - 0.0
30/05:30pm 6.9 3.7 2.8 75 1.7 W 9 11 5 6 - - 0.0
30/05:00pm 7.5 3.6 3.4 75 1.7 WSW 13 15 7 8 - - 0.0
30/04:30pm 8.6 5.1 3.4 70 2.2 WSW 11 19 6 10 - - 0.0
30/04:00pm 8.9 5.4 3.5 69 2.3 SW 11 17 6 9 - - 0.0
30/03:30pm 9.1 5.3 3.7 69 2.3 SW 13 17 7 9 - - 0.0
30/03:00pm 9.2 5.5 4.2 71 2.2 WSW 13 17 7 9 - - 0.0
30/02:30pm 9.3 5.5 4.1 70 2.3 W 13 17 7 9 - - 0.0
30/02:00pm 9.4 6.1 4.4 71 2.2 WSW 11 17 6 9 - - 0.0
30/01:30pm 9.5 6.5 4.1 69 2.4 W 9 11 5 6 - - 0.0
30/01:00pm 9.4 6.4 4.2 70 2.3 W 9 13 5 7 - - 0.0
30/12:30pm 9.1 5.8 4.3 72 2.1 W 11 17 6 9 - - 0.0
30/12:00pm 8.9 5.6 4.5 74 1.9 W 11 17 6 9 - - 0.0
30/11:30am 8.8 4.8 4.8 76 1.8 W 15 20 8 11 - - 0.0
30/11:00am 8.7 5.0 4.5 75 1.9 W 13 19 7 10 - - 0.0
30/10:30am 8.7 3.8 4.3 74 1.9 WSW 19 20 10 11 - - 0.0
30/10:00am 8.9 7.3 4.3 73 2.0 ESE 2 6 1 3 - - 0.0
30/09:30am 8.7 6.5 5.3 79 1.5 S 6 9 3 5 - - 0.0
30/09:00am 8.4 7.5 6.0 85 1.1 CALM 0 0 0 0 - - 2.4
30/08:30am 7.9 7.0 5.9 87 0.9 CALM 0 0 0 0 - - 2.4
30/08:00am 7.8 6.9 5.9 88 0.9 CALM 0 0 0 0 - - 2.4
30/07:30am 7.7 6.4 6.0 89 0.8 WNW 2 6 1 3 - - 2.4
30/07:00am 7.9 5.9 6.4 90 0.7 ESE 6 9 3 5 - - 2.4
30/06:30am 8.2 6.2 7.1 93 0.5 ESE 7 9 4 5 - - 2.4
30/06:00am 7.9 7.2 7.0 94 0.4 CALM 0 0 0 0 - - 2.4
30/05:30am 8.0 6.6 7.1 94 0.4 E 4 6 2 3 - - 2.4
30/05:00am 8.0 6.2 7.1 94 0.4 ENE 6 9 3 5 - - 2.4
30/04:30am 8.0 7.3 7.1 94 0.4 CALM 0 7 0 4 - - 2.4
30/04:00am 7.9 7.2 7.0 94 0.4 CALM 0 0 0 0 - - 2.4
30/03:30am 7.9 7.2 7.0 94 0.4 CALM 0 0 0 0 - - 2.4
30/03:00am 7.9 6.1 7.0 94 0.4 NNE 6 7 3 4 - - 2.4
30/02:30am 7.8 5.7 6.7 93 0.5 N 7 7 4 4 - - 2.4
30/02:00am 7.6 5.7 6.5 93 0.5 N 6 7 3 4 - - 2.4
30/01:30am 7.8 5.9 6.7 93 0.5 N 6 9 3 5 - - 2.4
30/01:00am 8.0 6.0 6.9 93 0.5 N 7 7 4 4 - - 2.4
30/12:30am 8.0 6.0 6.9 93 0.5 N 7 9 4 5 - - 2.4
30/12:00am 8.3 5.9 7.1 92 0.6 N 9 11 5 6 - - 2.4
 
Date/Time
EST
Temp
°C
App
Temp
°C
Dew
Point
Rel
Hum
%
Delta-T
°C
Wind Press
QNH
hPa
Press
MSL
hPa
Rain
since 9 am
mm
Dir
 
Spd
km/h
Gust
km/h
Spd
kts
Gust
kts
29/11:30pm 8.5 7.1 7.3 92 0.6 NW 4 7 2 4 - - 2.4
29/11:00pm 8.8 6.9 7.6 92 0.6 N 7 9 4 5 - - 2.4
29/10:30pm 8.5 7.1 7.1 91 0.7 NW 4 7 2 4 - - 2.4
29/10:00pm 8.5 7.8 7.1 91 0.7 CALM 0 0 0 0 - - 2.4
29/09:30pm 8.9 8.3 7.4 90 0.7 CALM 0 0 0 0 - - 2.4
29/09:00pm 8.7 8.1 7.2 90 0.7 CALM 0 0 0 0 - - 2.4
29/08:30pm 8.5 6.7 7.0 90 0.7 W 6 7 3 4 - - 2.4
29/08:00pm 8.3 7.5 6.4 88 0.9 CALM 0 0 0 0 - - 2.4
29/07:30pm 9.1 6.7 7.1 87 0.9 S 9 13 5 7 - - 2.4
29/07:00pm 9.6 7.3 7.4 86 1.0 S 9 13 5 7 - - 2.4
29/06:30pm 10.1 7.4 7.5 84 1.2 S 11 19 6 10 - - 2.4
29/06:00pm 10.2 7.9 7.4 83 1.3 SSE 9 13 5 7 - - 2.4
29/05:30pm 10.4 7.2 6.9 79 1.7 S 13 17 7 9 - - 2.4
29/05:00pm 10.9 7.3 6.6 75 2.0 S 15 24 8 13 - - 2.4
29/04:30pm 11.3 7.2 6.4 72 2.3 SSW 17 22 9 12 - - 2.4
29/04:00pm 11.1 8.4 7.2 77 1.9 SSW 11 13 6 7 - - 2.4
29/03:30pm 11.4 7.9 7.3 76 2.0 SSW 15 20 8 11 - - 2.4
29/03:00pm 11.4 7.7 7.9 79 1.7 S 17 22 9 12 - - 2.4
29/02:30pm 12.1 8.2 7.2 72 2.4 S 17 22 9 12 - - 2.4
29/02:00pm 11.8 9.2 7.7 76 2.0 SSW 11 15 6 8 - - 2.4
29/01:30pm 12.4 9.9 8.3 76 2.0 SSW 11 17 6 9 - - 2.4
29/01:00pm 11.9 10.4 8.6 80 1.6 SW 6 9 3 5 - - 2.4
29/12:30pm 10.9 8.8 8.3 84 1.3 SW 9 15 5 8 - - 2.4
29/12:00pm 10.3 9.3 8.7 90 0.8 NNE 4 7 2 4 - - 2.4
29/11:30am 9.3 7.5 7.9 91 0.7 N 7 9 4 5 - - 2.0
29/11:00am 9.1 7.2 7.4 89 0.8 ENE 7 9 4 5 - - 0.8
29/10:30am 9.4 7.7 7.5 88 0.9 NNE 6 7 3 4 - - 0.6
29/10:00am 9.5 8.4 6.9 84 1.2 N 2 7 1 4 - - 0.6
29/09:30am 9.1 6.7 7.1 87 0.9 NNE 9 13 5 7 - - 0.4
29/09:00am 8.6 6.5 6.7 88 0.9 NNE 7 11 4 6 - - 4.6
29/08:30am 8.3 6.1 6.3 87 0.9 NNE 7 9 4 5 - - 4.4
29/08:00am 8.8 6.2 6.2 84 1.2 WSW 9 15 5 8 - - 2.8
29/07:30am 9.0 5.5 5.6 79 1.5 W 13 20 7 11 - - 1.4
29/07:00am 9.3 5.4 5.3 76 1.8 W 15 20 8 11 - - 1.4
29/06:30am 9.5 6.1 5.7 77 1.7 W 13 20 7 11 - - 1.2
29/06:00am 8.3 6.2 5.9 85 1.1 NE 6 9 3 5 - - 1.2

Other Formats:

Comma delimited format used in spreadsheet applications
http://www.bom.gov.au/fwo/IDT60801/IDT60801.95972.axf

JavaScript Object Notation format (JSON) in row-major order
http://www.bom.gov.au/fwo/IDT60801/IDT60801.95972.json